sensor_id;sensor_type;location;lat;lon;timestamp;P1;durP1;ratioP1;P2;durP2;ratioP2
25163;SDS011;13440;50.860;13.662;2023-03-04T00:00:18;64.50;;;24.25;;
25163;SDS011;13440;50.860;13.662;2023-03-04T00:02:43;77.72;;;25.48;;
25163;SDS011;13440;50.860;13.662;2023-03-04T00:05:08;77.63;;;25.00;;
25163;SDS011;13440;50.860;13.662;2023-03-04T00:07:34;68.10;;;23.33;;
25163;SDS011;13440;50.860;13.662;2023-03-04T00:09:59;73.75;;;26.10;;
25163;SDS011;13440;50.860;13.662;2023-03-04T00:12:24;69.55;;;25.60;;
25163;SDS011;13440;50.860;13.662;2023-03-04T00:14:49;72.90;;;24.90;;
25163;SDS011;13440;50.860;13.662;2023-03-04T00:17:15;77.07;;;25.73;;
25163;SDS011;13440;50.860;13.662;2023-03-04T00:19:40;67.73;;;24.23;;
25163;SDS011;13440;50.860;13.662;2023-03-04T00:22:05;72.50;;;25.97;;
25163;SDS011;13440;50.860;13.662;2023-03-04T00:24:30;71.60;;;25.20;;
25163;SDS011;13440;50.860;13.662;2023-03-04T00:26:56;72.35;;;26.65;;
25163;SDS011;13440;50.860;13.662;2023-03-04T00:29:21;70.33;;;25.77;;
25163;SDS011;13440;50.860;13.662;2023-03-04T00:31:47;72.03;;;25.33;;
25163;SDS011;13440;50.860;13.662;2023-03-04T00:34:12;66.53;;;25.70;;
25163;SDS011;13440;50.860;13.662;2023-03-04T00:36:37;68.97;;;25.95;;
25163;SDS011;13440;50.860;13.662;2023-03-04T00:39:02;79.93;;;28.10;;
25163;SDS011;13440;50.860;13.662;2023-03-04T00:41:28;74.20;;;27.58;;
25163;SDS011;13440;50.860;13.662;2023-03-04T00:43:53;74.70;;;27.07;;
25163;SDS011;13440;50.860;13.662;2023-03-04T00:46:18;70.38;;;26.90;;
25163;SDS011;13440;50.860;13.662;2023-03-04T00:48:43;71.70;;;26.77;;
25163;SDS011;13440;50.860;13.662;2023-03-04T00:51:08;71.43;;;26.63;;
25163;SDS011;13440;50.860;13.662;2023-03-04T00:53:34;71.68;;;26.17;;
25163;SDS011;13440;50.860;13.662;2023-03-04T00:55:59;70.30;;;25.02;;
25163;SDS011;13440;50.860;13.662;2023-03-04T00:58:24;62.23;;;25.60;;
25163;SDS011;13440;50.860;13.662;2023-03-04T01:00:49;64.43;;;25.47;;
25163;SDS011;13440;50.860;13.662;2023-03-04T01:03:15;65.03;;;25.47;;
25163;SDS011;13440;50.860;13.662;2023-03-04T01:05:40;65.17;;;25.50;;
25163;SDS011;13440;50.860;13.662;2023-03-04T01:08:05;64.93;;;26.33;;
25163;SDS011;13440;50.860;13.662;2023-03-04T01:10:30;68.57;;;26.17;;
25163;SDS011;13440;50.860;13.662;2023-03-04T01:12:57;65.95;;;25.10;;
25163;SDS011;13440;50.860;13.662;2023-03-04T01:15:22;63.85;;;24.27;;
25163;SDS011;13440;50.860;13.662;2023-03-04T01:17:47;60.40;;;25.10;;
25163;SDS011;13440;50.860;13.662;2023-03-04T01:20:13;68.15;;;26.55;;
25163;SDS011;13440;50.860;13.662;2023-03-04T01:22:39;61.63;;;24.23;;
25163;SDS011;13440;50.860;13.662;2023-03-04T01:25:06;60.13;;;24.58;;
25163;SDS011;13440;50.860;13.662;2023-03-04T01:27:31;53.65;;;23.25;;
25163;SDS011;13440;50.860;13.662;2023-03-04T01:29:56;62.70;;;25.83;;
25163;SDS011;13440;50.860;13.662;2023-03-04T01:32:21;58.50;;;24.57;;
25163;SDS011;13440;50.860;13.662;2023-03-04T01:34:47;57.40;;;24.88;;
25163;SDS011;13440;50.860;13.662;2023-03-04T01:37:12;60.85;;;24.52;;
25163;SDS011;13440;50.860;13.662;2023-03-04T01:39:38;62.92;;;24.50;;
25163;SDS011;13440;50.860;13.662;2023-03-04T01:42:03;58.42;;;23.63;;
25163;SDS011;13440;50.860;13.662;2023-03-04T01:44:28;58.37;;;24.83;;
25163;SDS011;13440;50.860;13.662;2023-03-04T01:46:54;58.63;;;24.85;;
25163;SDS011;13440;50.860;13.662;2023-03-04T01:49:20;55.75;;;25.10;;
25163;SDS011;13440;50.860;13.662;2023-03-04T01:51:49;56.85;;;25.40;;
25163;SDS011;13440;50.860;13.662;2023-03-04T01:54:16;56.58;;;24.83;;
25163;SDS011;13440;50.860;13.662;2023-03-04T01:56:43;61.45;;;25.83;;
25163;SDS011;13440;50.860;13.662;2023-03-04T01:59:10;57.08;;;24.88;;
25163;SDS011;13440;50.860;13.662;2023-03-04T02:01:35;53.88;;;24.35;;
25163;SDS011;13440;50.860;13.662;2023-03-04T02:04:03;59.47;;;25.35;;
25163;SDS011;13440;50.860;13.662;2023-03-04T02:06:29;54.55;;;24.52;;
25163;SDS011;13440;50.860;13.662;2023-03-04T02:08:54;49.97;;;23.67;;
25163;SDS011;13440;50.860;13.662;2023-03-04T02:11:20;54.30;;;25.50;;
25163;SDS011;13440;50.860;13.662;2023-03-04T02:13:45;51.58;;;25.17;;
25163;SDS011;13440;50.860;13.662;2023-03-04T02:16:10;59.22;;;27.63;;
25163;SDS011;13440;50.860;13.662;2023-03-04T02:18:35;54.75;;;25.98;;
25163;SDS011;13440;50.860;13.662;2023-03-04T02:21:04;58.40;;;27.87;;
25163;SDS011;13440;50.860;13.662;2023-03-04T02:26:20;59.28;;;27.92;;
25163;SDS011;13440;50.860;13.662;2023-03-04T02:28:49;57.28;;;27.15;;
25163;SDS011;13440;50.860;13.662;2023-03-04T02:33:43;63.22;;;29.15;;
25163;SDS011;13440;50.860;13.662;2023-03-04T02:36:08;61.67;;;28.33;;
25163;SDS011;13440;50.860;13.662;2023-03-04T02:38:34;61.00;;;28.30;;
25163;SDS011;13440;50.860;13.662;2023-03-04T02:41:00;58.72;;;28.20;;
25163;SDS011;13440;50.860;13.662;2023-03-04T02:43:26;56.78;;;28.27;;
25163;SDS011;13440;50.860;13.662;2023-03-04T02:45:52;62.63;;;30.23;;
25163;SDS011;13440;50.860;13.662;2023-03-04T02:48:19;51.10;;;27.08;;
25163;SDS011;13440;50.860;13.662;2023-03-04T02:50:46;56.08;;;28.33;;
25163;SDS011;13440;50.860;13.662;2023-03-04T02:53:12;52.42;;;27.15;;
25163;SDS011;13440;50.860;13.662;2023-03-04T02:55:37;54.33;;;26.95;;
25163;SDS011;13440;50.860;13.662;2023-03-04T02:58:02;52.65;;;26.50;;
25163;SDS011;13440;50.860;13.662;2023-03-04T03:00:28;50.53;;;26.50;;
25163;SDS011;13440;50.860;13.662;2023-03-04T03:02:53;54.22;;;27.35;;
25163;SDS011;13440;50.860;13.662;2023-03-04T03:05:22;45.55;;;24.98;;
25163;SDS011;13440;50.860;13.662;2023-03-04T03:07:47;49.38;;;25.83;;
25163;SDS011;13440;50.860;13.662;2023-03-04T03:10:13;50.70;;;25.60;;
25163;SDS011;13440;50.860;13.662;2023-03-04T03:12:39;50.67;;;26.52;;
25163;SDS011;13440;50.860;13.662;2023-03-04T03:15:04;53.42;;;26.50;;
25163;SDS011;13440;50.860;13.662;2023-03-04T03:17:30;49.58;;;26.17;;
25163;SDS011;13440;50.860;13.662;2023-03-04T03:19:55;51.65;;;26.08;;
25163;SDS011;13440;50.860;13.662;2023-03-04T03:22:20;49.25;;;24.80;;
25163;SDS011;13440;50.860;13.662;2023-03-04T03:24:46;44.28;;;23.70;;
25163;SDS011;13440;50.860;13.662;2023-03-04T03:27:11;49.63;;;23.23;;
25163;SDS011;13440;50.860;13.662;2023-03-04T03:29:37;47.47;;;23.98;;
25163;SDS011;13440;50.860;13.662;2023-03-04T03:32:05;39.25;;;20.67;;
25163;SDS011;13440;50.860;13.662;2023-03-04T03:34:30;42.30;;;20.40;;
25163;SDS011;13440;50.860;13.662;2023-03-04T03:36:55;36.22;;;20.55;;
25163;SDS011;13440;50.860;13.662;2023-03-04T03:39:21;34.75;;;18.95;;
25163;SDS011;13440;50.860;13.662;2023-03-04T03:41:46;31.77;;;18.17;;
25163;SDS011;13440;50.860;13.662;2023-03-04T03:44:11;35.75;;;19.33;;
25163;SDS011;13440;50.860;13.662;2023-03-04T03:46:37;28.90;;;17.38;;
25163;SDS011;13440;50.860;13.662;2023-03-04T03:49:02;33.40;;;17.83;;
25163;SDS011;13440;50.860;13.662;2023-03-04T03:51:27;32.83;;;17.80;;
25163;SDS011;13440;50.860;13.662;2023-03-04T03:53:52;33.92;;;17.65;;
25163;SDS011;13440;50.860;13.662;2023-03-04T03:56:17;36.13;;;18.20;;
25163;SDS011;13440;50.860;13.662;2023-03-04T03:58:43;30.37;;;18.03;;
25163;SDS011;13440;50.860;13.662;2023-03-04T04:01:08;32.27;;;18.57;;
25163;SDS011;13440;50.860;13.662;2023-03-04T04:03:33;33.57;;;17.77;;
25163;SDS011;13440;50.860;13.662;2023-03-04T04:05:59;33.08;;;17.70;;
25163;SDS011;13440;50.860;13.662;2023-03-04T04:08:24;36.20;;;18.70;;
25163;SDS011;13440;50.860;13.662;2023-03-04T04:10:49;34.77;;;19.20;;
25163;SDS011;13440;50.860;13.662;2023-03-04T04:13:14;35.60;;;17.63;;
25163;SDS011;13440;50.860;13.662;2023-03-04T04:15:39;36.67;;;18.70;;
25163;SDS011;13440;50.860;13.662;2023-03-04T04:18:05;35.75;;;19.02;;
25163;SDS011;13440;50.860;13.662;2023-03-04T04:20:31;35.30;;;18.42;;
25163;SDS011;13440;50.860;13.662;2023-03-04T04:22:56;36.00;;;18.38;;
25163;SDS011;13440;50.860;13.662;2023-03-04T04:25:21;34.53;;;18.73;;
25163;SDS011;13440;50.860;13.662;2023-03-04T04:27:46;37.50;;;19.23;;
25163;SDS011;13440;50.860;13.662;2023-03-04T04:30:12;38.67;;;19.70;;
25163;SDS011;13440;50.860;13.662;2023-03-04T04:32:37;38.80;;;20.33;;
25163;SDS011;13440;50.860;13.662;2023-03-04T04:35:02;37.40;;;18.97;;
25163;SDS011;13440;50.860;13.662;2023-03-04T04:37:27;37.50;;;19.95;;
25163;SDS011;13440;50.860;13.662;2023-03-04T04:39:53;42.93;;;20.93;;
25163;SDS011;13440;50.860;13.662;2023-03-04T04:42:19;39.92;;;20.63;;
25163;SDS011;13440;50.860;13.662;2023-03-04T04:44:45;44.63;;;20.90;;
25163;SDS011;13440;50.860;13.662;2023-03-04T04:47:10;43.60;;;22.03;;
25163;SDS011;13440;50.860;13.662;2023-03-04T04:49:35;38.00;;;20.10;;
25163;SDS011;13440;50.860;13.662;2023-03-04T04:52:00;40.53;;;20.50;;
25163;SDS011;13440;50.860;13.662;2023-03-04T04:54:25;48.88;;;22.15;;
25163;SDS011;13440;50.860;13.662;2023-03-04T04:56:51;40.17;;;20.52;;
25163;SDS011;13440;50.860;13.662;2023-03-04T04:59:16;42.33;;;21.57;;
25163;SDS011;13440;50.860;13.662;2023-03-04T05:01:41;45.00;;;22.50;;
25163;SDS011;13440;50.860;13.662;2023-03-04T05:04:06;40.13;;;21.92;;
25163;SDS011;13440;50.860;13.662;2023-03-04T05:06:32;44.83;;;23.70;;
25163;SDS011;13440;50.860;13.662;2023-03-04T05:08:57;44.67;;;23.58;;
25163;SDS011;13440;50.860;13.662;2023-03-04T05:11:22;43.97;;;22.35;;
25163;SDS011;13440;50.860;13.662;2023-03-04T05:13:47;44.50;;;22.80;;
25163;SDS011;13440;50.860;13.662;2023-03-04T05:16:13;44.20;;;22.25;;
25163;SDS011;13440;50.860;13.662;2023-03-04T05:18:38;42.10;;;21.95;;
25163;SDS011;13440;50.860;13.662;2023-03-04T05:21:05;40.83;;;22.45;;
25163;SDS011;13440;50.860;13.662;2023-03-04T05:23:32;45.75;;;22.73;;
25163;SDS011;13440;50.860;13.662;2023-03-04T05:25:57;40.17;;;20.92;;
25163;SDS011;13440;50.860;13.662;2023-03-04T05:28:22;40.07;;;22.17;;
25163;SDS011;13440;50.860;13.662;2023-03-04T05:30:48;38.83;;;21.48;;
25163;SDS011;13440;50.860;13.662;2023-03-04T05:33:14;39.30;;;22.52;;
25163;SDS011;13440;50.860;13.662;2023-03-04T05:35:39;37.95;;;22.08;;
25163;SDS011;13440;50.860;13.662;2023-03-04T05:38:06;34.42;;;20.73;;
25163;SDS011;13440;50.860;13.662;2023-03-04T05:40:32;35.17;;;19.85;;
25163;SDS011;13440;50.860;13.662;2023-03-04T05:42:57;38.72;;;21.42;;
25163;SDS011;13440;50.860;13.662;2023-03-04T05:45:23;43.10;;;22.50;;
25163;SDS011;13440;50.860;13.662;2023-03-04T05:47:48;40.28;;;21.50;;
25163;SDS011;13440;50.860;13.662;2023-03-04T05:50:14;37.97;;;20.67;;
25163;SDS011;13440;50.860;13.662;2023-03-04T05:52:39;38.87;;;20.53;;
25163;SDS011;13440;50.860;13.662;2023-03-04T05:55:04;39.13;;;21.40;;
25163;SDS011;13440;50.860;13.662;2023-03-04T05:57:29;40.28;;;21.05;;
25163;SDS011;13440;50.860;13.662;2023-03-04T05:59:55;39.83;;;20.27;;
25163;SDS011;13440;50.860;13.662;2023-03-04T06:02:20;43.17;;;20.57;;
25163;SDS011;13440;50.860;13.662;2023-03-04T06:04:45;37.47;;;20.40;;
25163;SDS011;13440;50.860;13.662;2023-03-04T06:07:10;44.17;;;21.33;;
25163;SDS011;13440;50.860;13.662;2023-03-04T06:09:35;38.93;;;19.60;;
25163;SDS011;13440;50.860;13.662;2023-03-04T06:12:01;39.07;;;20.50;;
25163;SDS011;13440;50.860;13.662;2023-03-04T06:14:26;40.70;;;19.63;;
25163;SDS011;13440;50.860;13.662;2023-03-04T06:16:51;41.90;;;21.20;;
25163;SDS011;13440;50.860;13.662;2023-03-04T06:19:16;40.72;;;20.70;;
25163;SDS011;13440;50.860;13.662;2023-03-04T06:21:41;36.95;;;19.27;;
25163;SDS011;13440;50.860;13.662;2023-03-04T06:24:07;38.87;;;20.50;;
25163;SDS011;13440;50.860;13.662;2023-03-04T06:26:32;37.72;;;18.08;;
25163;SDS011;13440;50.860;13.662;2023-03-04T06:28:57;35.40;;;17.37;;
25163;SDS011;13440;50.860;13.662;2023-03-04T06:31:22;37.58;;;17.60;;
25163;SDS011;13440;50.860;13.662;2023-03-04T06:33:48;38.03;;;20.02;;
25163;SDS011;13440;50.860;13.662;2023-03-04T06:36:13;42.42;;;19.08;;
25163;SDS011;13440;50.860;13.662;2023-03-04T06:38:38;40.20;;;17.90;;
25163;SDS011;13440;50.860;13.662;2023-03-04T06:41:07;37.37;;;17.70;;
25163;SDS011;13440;50.860;13.662;2023-03-04T06:43:33;39.25;;;18.70;;
25163;SDS011;13440;50.860;13.662;2023-03-04T06:45:58;39.53;;;19.23;;
25163;SDS011;13440;50.860;13.662;2023-03-04T06:48:23;38.30;;;18.80;;
25163;SDS011;13440;50.860;13.662;2023-03-04T06:50:49;41.53;;;19.77;;
25163;SDS011;13440;50.860;13.662;2023-03-04T06:53:14;36.57;;;18.20;;
25163;SDS011;13440;50.860;13.662;2023-03-04T06:55:39;43.70;;;18.27;;
25163;SDS011;13440;50.860;13.662;2023-03-04T06:58:04;37.03;;;17.80;;
25163;SDS011;13440;50.860;13.662;2023-03-04T07:00:29;32.15;;;17.70;;
25163;SDS011;13440;50.860;13.662;2023-03-04T07:02:55;42.15;;;19.42;;
25163;SDS011;13440;50.860;13.662;2023-03-04T07:05:21;35.60;;;18.05;;
25163;SDS011;13440;50.860;13.662;2023-03-04T07:07:47;37.77;;;18.00;;
25163;SDS011;13440;50.860;13.662;2023-03-04T07:10:13;39.25;;;17.95;;
25163;SDS011;13440;50.860;13.662;2023-03-04T07:12:38;35.40;;;18.10;;
25163;SDS011;13440;50.860;13.662;2023-03-04T07:15:04;36.73;;;17.43;;
25163;SDS011;13440;50.860;13.662;2023-03-04T07:17:29;37.45;;;18.35;;
25163;SDS011;13440;50.860;13.662;2023-03-04T07:19:54;35.73;;;17.10;;
25163;SDS011;13440;50.860;13.662;2023-03-04T07:22:19;31.17;;;16.53;;
25163;SDS011;13440;50.860;13.662;2023-03-04T07:24:44;35.90;;;16.33;;
25163;SDS011;13440;50.860;13.662;2023-03-04T07:27:10;33.80;;;17.65;;
25163;SDS011;13440;50.860;13.662;2023-03-04T07:29:35;30.43;;;16.87;;
25163;SDS011;13440;50.860;13.662;2023-03-04T07:32:00;31.57;;;16.63;;
25163;SDS011;13440;50.860;13.662;2023-03-04T07:34:25;33.23;;;17.17;;
25163;SDS011;13440;50.860;13.662;2023-03-04T07:36:50;32.40;;;16.53;;
25163;SDS011;13440;50.860;13.662;2023-03-04T07:39:16;31.27;;;16.13;;
25163;SDS011;13440;50.860;13.662;2023-03-04T07:41:41;33.00;;;17.08;;
25163;SDS011;13440;50.860;13.662;2023-03-04T07:44:07;33.67;;;16.20;;
25163;SDS011;13440;50.860;13.662;2023-03-04T07:46:32;32.75;;;16.67;;
25163;SDS011;13440;50.860;13.662;2023-03-04T07:48:57;33.75;;;16.30;;
25163;SDS011;13440;50.860;13.662;2023-03-04T07:51:24;29.67;;;15.65;;
25163;SDS011;13440;50.860;13.662;2023-03-04T07:53:50;27.95;;;14.77;;
25163;SDS011;13440;50.860;13.662;2023-03-04T07:56:17;31.60;;;15.90;;
25163;SDS011;13440;50.860;13.662;2023-03-04T07:58:42;32.75;;;16.40;;
25163;SDS011;13440;50.860;13.662;2023-03-04T08:01:11;31.90;;;15.18;;
25163;SDS011;13440;50.860;13.662;2023-03-04T08:03:37;36.17;;;16.20;;
25163;SDS011;13440;50.860;13.662;2023-03-04T08:06:03;26.60;;;15.45;;
25163;SDS011;13440;50.860;13.662;2023-03-04T08:08:29;33.65;;;15.63;;
25163;SDS011;13440;50.860;13.662;2023-03-04T08:10:54;31.00;;;14.50;;
25163;SDS011;13440;50.860;13.662;2023-03-04T08:13:19;30.33;;;14.65;;
25163;SDS011;13440;50.860;13.662;2023-03-04T08:15:44;27.88;;;14.45;;
25163;SDS011;13440;50.860;13.662;2023-03-04T08:18:09;34.23;;;15.10;;
25163;SDS011;13440;50.860;13.662;2023-03-04T08:20:35;27.40;;;14.20;;
25163;SDS011;13440;50.860;13.662;2023-03-04T08:23:00;29.60;;;13.90;;
25163;SDS011;13440;50.860;13.662;2023-03-04T08:25:25;33.60;;;15.37;;
25163;SDS011;13440;50.860;13.662;2023-03-04T08:27:50;25.77;;;13.37;;
25163;SDS011;13440;50.860;13.662;2023-03-04T08:30:16;31.83;;;17.58;;
25163;SDS011;13440;50.860;13.662;2023-03-04T08:32:41;23.60;;;13.77;;
25163;SDS011;13440;50.860;13.662;2023-03-04T08:35:06;27.37;;;13.23;;
25163;SDS011;13440;50.860;13.662;2023-03-04T08:37:31;28.60;;;14.13;;
25163;SDS011;13440;50.860;13.662;2023-03-04T08:39:56;27.63;;;12.53;;
25163;SDS011;13440;50.860;13.662;2023-03-04T08:42:22;23.20;;;12.33;;
25163;SDS011;13440;50.860;13.662;2023-03-04T08:44:48;21.02;;;12.65;;
25163;SDS011;13440;50.860;13.662;2023-03-04T08:47:13;22.25;;;12.93;;
25163;SDS011;13440;50.860;13.662;2023-03-04T08:49:38;23.00;;;12.63;;
25163;SDS011;13440;50.860;13.662;2023-03-04T08:52:03;19.40;;;12.30;;
25163;SDS011;13440;50.860;13.662;2023-03-04T08:54:29;19.30;;;12.25;;
25163;SDS011;13440;50.860;13.662;2023-03-04T08:56:54;22.73;;;13.10;;
25163;SDS011;13440;50.860;13.662;2023-03-04T08:59:19;20.17;;;11.50;;
25163;SDS011;13440;50.860;13.662;2023-03-04T09:01:44;22.92;;;12.63;;
25163;SDS011;13440;50.860;13.662;2023-03-04T09:04:10;22.55;;;12.77;;
25163;SDS011;13440;50.860;13.662;2023-03-04T09:06:35;20.70;;;10.77;;
25163;SDS011;13440;50.860;13.662;2023-03-04T09:09:00;20.07;;;11.67;;
25163;SDS011;13440;50.860;13.662;2023-03-04T09:11:25;22.35;;;10.93;;
25163;SDS011;13440;50.860;13.662;2023-03-04T09:13:50;18.17;;;10.87;;
25163;SDS011;13440;50.860;13.662;2023-03-04T09:16:16;18.33;;;9.93;;
25163;SDS011;13440;50.860;13.662;2023-03-04T09:18:41;20.17;;;9.88;;
25163;SDS011;13440;50.860;13.662;2023-03-04T09:21:06;18.23;;;9.75;;
25163;SDS011;13440;50.860;13.662;2023-03-04T09:23:32;17.33;;;10.30;;
25163;SDS011;13440;50.860;13.662;2023-03-04T09:25:58;17.40;;;9.93;;
25163;SDS011;13440;50.860;13.662;2023-03-04T09:28:23;14.87;;;9.20;;
25163;SDS011;13440;50.860;13.662;2023-03-04T09:30:48;20.15;;;9.45;;
25163;SDS011;13440;50.860;13.662;2023-03-04T09:33:13;17.30;;;8.87;;
25163;SDS011;13440;50.860;13.662;2023-03-04T09:35:38;16.85;;;8.93;;
25163;SDS011;13440;50.860;13.662;2023-03-04T09:38:04;13.48;;;8.60;;
25163;SDS011;13440;50.860;13.662;2023-03-04T09:40:36;15.10;;;8.88;;
25163;SDS011;13440;50.860;13.662;2023-03-04T09:43:03;12.93;;;8.63;;
25163;SDS011;13440;50.860;13.662;2023-03-04T09:45:33;13.80;;;8.27;;
25163;SDS011;13440;50.860;13.662;2023-03-04T09:48:00;16.92;;;9.20;;
25163;SDS011;13440;50.860;13.662;2023-03-04T09:50:26;14.82;;;8.70;;
25163;SDS011;13440;50.860;13.662;2023-03-04T10:05:20;12.43;;;7.50;;
25163;SDS011;13440;50.860;13.662;2023-03-04T10:07:47;12.20;;;7.40;;
25163;SDS011;13440;50.860;13.662;2023-03-04T10:10:24;13.77;;;7.65;;
25163;SDS011;13440;50.860;13.662;2023-03-04T10:12:51;14.02;;;7.05;;
25163;SDS011;13440;50.860;13.662;2023-03-04T10:15:21;20.70;;;12.05;;
25163;SDS011;13440;50.860;13.662;2023-03-04T10:17:48;17.25;;;8.70;;
25163;SDS011;13440;50.860;13.662;2023-03-04T10:20:18;14.10;;;7.53;;
25163;SDS011;13440;50.860;13.662;2023-03-04T10:27:38;11.20;;;7.50;;
25163;SDS011;13440;50.860;13.662;2023-03-04T10:30:05;20.17;;;12.17;;
25163;SDS011;13440;50.860;13.662;2023-03-04T10:32:35;19.77;;;10.75;;
25163;SDS011;13440;50.860;13.662;2023-03-04T10:35:00;23.20;;;15.33;;
25163;SDS011;13440;50.860;13.662;2023-03-04T10:37:36;16.73;;;10.27;;
25163;SDS011;13440;50.860;13.662;2023-03-04T10:40:17;13.85;;;8.35;;
25163;SDS011;13440;50.860;13.662;2023-03-04T10:42:42;13.10;;;8.20;;
25163;SDS011;13440;50.860;13.662;2023-03-04T10:45:11;16.23;;;10.77;;
25163;SDS011;13440;50.860;13.662;2023-03-04T10:47:43;15.85;;;8.48;;
25163;SDS011;13440;50.860;13.662;2023-03-04T10:50:20;11.15;;;7.60;;
25163;SDS011;13440;50.860;13.662;2023-03-04T10:52:46;13.18;;;7.18;;
25163;SDS011;13440;50.860;13.662;2023-03-04T10:55:56;14.70;;;8.63;;
25163;SDS011;13440;50.860;13.662;2023-03-04T10:58:02;12.82;;;7.38;;
25163;SDS011;13440;50.860;13.662;2023-03-04T11:00:29;14.05;;;7.22;;
25163;SDS011;13440;50.860;13.662;2023-03-04T11:05:39;8.65;;;6.90;;
25163;SDS011;13440;50.860;13.662;2023-03-04T11:08:04;9.75;;;6.68;;
25163;SDS011;13440;50.860;13.662;2023-03-04T11:13:21;11.73;;;6.97;;
25163;SDS011;13440;50.860;13.662;2023-03-04T11:15:51;17.60;;;8.02;;
25163;SDS011;13440;50.860;13.662;2023-03-04T11:21:01;12.27;;;6.03;;
25163;SDS011;13440;50.860;13.662;2023-03-04T11:23:39;14.20;;;7.23;;
25163;SDS011;13440;50.860;13.662;2023-03-04T11:26:11;13.80;;;7.57;;
25163;SDS011;13440;50.860;13.662;2023-03-04T11:31:05;14.90;;;7.47;;
25163;SDS011;13440;50.860;13.662;2023-03-04T11:38:42;14.00;;;7.60;;
25163;SDS011;13440;50.860;13.662;2023-03-04T11:41:10;12.98;;;7.95;;
25163;SDS011;13440;50.860;13.662;2023-03-04T11:43:36;11.93;;;7.65;;
25163;SDS011;13440;50.860;13.662;2023-03-04T11:46:19;15.23;;;8.23;;
25163;SDS011;13440;50.860;13.662;2023-03-04T11:51:36;15.63;;;7.57;;
25163;SDS011;13440;50.860;13.662;2023-03-04T11:54:14;15.95;;;8.07;;
25163;SDS011;13440;50.860;13.662;2023-03-04T12:10:05;16.15;;;7.90;;
25163;SDS011;13440;50.860;13.662;2023-03-04T12:15:13;12.03;;;6.63;;
25163;SDS011;13440;50.860;13.662;2023-03-04T12:17:46;15.80;;;7.53;;
25163;SDS011;13440;50.860;13.662;2023-03-04T12:20:25;11.57;;;6.28;;
25163;SDS011;13440;50.860;13.662;2023-03-04T12:22:57;13.80;;;7.47;;
25163;SDS011;13440;50.860;13.662;2023-03-04T12:40:53;12.52;;;6.53;;
25163;SDS011;13440;50.860;13.662;2023-03-04T12:43:32;14.95;;;7.88;;
25163;SDS011;13440;50.860;13.662;2023-03-04T12:48:30;63.15;;;37.88;;
25163;SDS011;13440;50.860;13.662;2023-03-04T12:56:02;9.35;;;6.75;;
25163;SDS011;13440;50.860;13.662;2023-03-04T12:58:29;11.32;;;6.10;;
25163;SDS011;13440;50.860;13.662;2023-03-04T13:01:04;10.10;;;5.70;;
25163;SDS011;13440;50.860;13.662;2023-03-04T13:06:09;16.53;;;6.20;;
25163;SDS011;13440;50.860;13.662;2023-03-04T13:11:01;12.15;;;5.93;;
25163;SDS011;13440;50.860;13.662;2023-03-04T13:16:05;9.13;;;5.40;;
25163;SDS011;13440;50.860;13.662;2023-03-04T13:18:37;12.90;;;5.72;;
25163;SDS011;13440;50.860;13.662;2023-03-04T13:23:36;10.98;;;5.50;;
25163;SDS011;13440;50.860;13.662;2023-03-04T13:28:28;12.53;;;5.63;;
25163;SDS011;13440;50.860;13.662;2023-03-04T13:38:24;11.27;;;5.65;;
25163;SDS011;13440;50.860;13.662;2023-03-04T13:43:36;8.18;;;4.80;;
25163;SDS011;13440;50.860;13.662;2023-03-04T13:49:03;9.63;;;4.47;;
25163;SDS011;13440;50.860;13.662;2023-03-04T13:51:34;12.57;;;4.72;;
25163;SDS011;13440;50.860;13.662;2023-03-04T13:59:07;8.73;;;4.20;;
25163;SDS011;13440;50.860;13.662;2023-03-04T14:01:35;7.53;;;4.10;;
25163;SDS011;13440;50.860;13.662;2023-03-04T14:04:09;8.13;;;3.67;;
25163;SDS011;13440;50.860;13.662;2023-03-04T14:09:08;10.90;;;4.47;;
25163;SDS011;13440;50.860;13.662;2023-03-04T14:11:37;7.97;;;3.97;;
25163;SDS011;13440;50.860;13.662;2023-03-04T14:14:06;6.93;;;3.42;;
25163;SDS011;13440;50.860;13.662;2023-03-04T14:16:34;7.53;;;3.28;;
25163;SDS011;13440;50.860;13.662;2023-03-04T14:19:02;6.40;;;3.30;;
25163;SDS011;13440;50.860;13.662;2023-03-04T14:21:28;8.07;;;3.92;;
25163;SDS011;13440;50.860;13.662;2023-03-04T14:24:00;8.15;;;4.15;;
25163;SDS011;13440;50.860;13.662;2023-03-04T14:26:26;9.77;;;4.40;;
25163;SDS011;13440;50.860;13.662;2023-03-04T14:28:51;7.70;;;4.73;;
25163;SDS011;13440;50.860;13.662;2023-03-04T14:31:21;6.97;;;4.18;;
25163;SDS011;13440;50.860;13.662;2023-03-04T14:33:52;10.35;;;4.80;;
25163;SDS011;13440;50.860;13.662;2023-03-04T14:36:21;5.35;;;3.92;;
25163;SDS011;13440;50.860;13.662;2023-03-04T14:38:58;6.72;;;4.18;;
25163;SDS011;13440;50.860;13.662;2023-03-04T14:41:25;7.60;;;4.18;;
25163;SDS011;13440;50.860;13.662;2023-03-04T14:46:23;8.55;;;4.57;;
25163;SDS011;13440;50.860;13.662;2023-03-04T14:48:51;7.55;;;4.80;;
25163;SDS011;13440;50.860;13.662;2023-03-04T14:51:32;7.80;;;5.10;;
25163;SDS011;13440;50.860;13.662;2023-03-04T14:54:00;6.38;;;4.60;;
25163;SDS011;13440;50.860;13.662;2023-03-04T14:56:26;6.17;;;4.30;;
25163;SDS011;13440;50.860;13.662;2023-03-04T14:58:52;6.28;;;3.97;;
25163;SDS011;13440;50.860;13.662;2023-03-04T15:01:19;6.75;;;3.25;;
25163;SDS011;13440;50.860;13.662;2023-03-04T15:03:59;8.98;;;3.53;;
25163;SDS011;13440;50.860;13.662;2023-03-04T15:06:26;5.25;;;3.30;;
25163;SDS011;13440;50.860;13.662;2023-03-04T15:11:24;6.40;;;3.00;;
25163;SDS011;13440;50.860;13.662;2023-03-04T15:13:51;7.80;;;3.30;;
25163;SDS011;13440;50.860;13.662;2023-03-04T15:16:18;7.57;;;3.50;;
25163;SDS011;13440;50.860;13.662;2023-03-04T15:19:03;9.13;;;3.72;;
25163;SDS011;13440;50.860;13.662;2023-03-04T15:21:31;6.03;;;3.42;;
25163;SDS011;13440;50.860;13.662;2023-03-04T15:23:57;6.38;;;4.30;;
25163;SDS011;13440;50.860;13.662;2023-03-04T15:26:22;7.00;;;3.10;;
25163;SDS011;13440;50.860;13.662;2023-03-04T15:28:47;6.68;;;3.47;;
25163;SDS011;13440;50.860;13.662;2023-03-04T15:31:16;5.85;;;3.05;;
25163;SDS011;13440;50.860;13.662;2023-03-04T15:33:42;5.45;;;3.70;;
25163;SDS011;13440;50.860;13.662;2023-03-04T15:36:07;6.93;;;4.10;;
25163;SDS011;13440;50.860;13.662;2023-03-04T15:38:34;5.97;;;3.60;;
25163;SDS011;13440;50.860;13.662;2023-03-04T15:40:59;4.33;;;3.20;;
25163;SDS011;13440;50.860;13.662;2023-03-04T15:43:24;5.80;;;3.65;;
25163;SDS011;13440;50.860;13.662;2023-03-04T15:45:50;6.50;;;3.40;;
25163;SDS011;13440;50.860;13.662;2023-03-04T15:48:16;4.70;;;2.97;;
25163;SDS011;13440;50.860;13.662;2023-03-04T15:51:03;6.55;;;3.25;;
25163;SDS011;13440;50.860;13.662;2023-03-04T15:53:30;9.13;;;4.53;;
25163;SDS011;13440;50.860;13.662;2023-03-04T15:55:57;4.93;;;3.05;;
25163;SDS011;13440;50.860;13.662;2023-03-04T15:58:22;5.82;;;3.28;;
25163;SDS011;13440;50.860;13.662;2023-03-04T16:00:47;7.85;;;3.70;;
25163;SDS011;13440;50.860;13.662;2023-03-04T16:03:14;8.98;;;3.47;;
25163;SDS011;13440;50.860;13.662;2023-03-04T16:05:40;7.30;;;3.85;;
25163;SDS011;13440;50.860;13.662;2023-03-04T16:08:05;8.07;;;4.40;;
25163;SDS011;13440;50.860;13.662;2023-03-04T16:10:30;9.63;;;5.15;;